createdAt,value
2019-02-10T00:04:19.487Z,6.02
2019-02-10T00:09:21.492Z,5.99
2019-02-10T00:14:23.376Z,5.90
2019-02-10T00:19:25.289Z,5.85
2019-02-10T00:24:27.164Z,5.91
2019-02-10T00:29:29.473Z,5.77
2019-02-10T00:34:31.466Z,5.75
2019-02-10T00:39:33.362Z,5.88
2019-02-10T00:44:35.362Z,5.88
2019-02-10T00:49:37.535Z,5.86
2019-02-10T00:54:39.420Z,5.76
2019-02-10T00:59:41.305Z,5.81
2019-02-10T01:04:43.229Z,5.78
2019-02-10T01:09:46.346Z,5.67
2019-02-10T01:14:48.262Z,5.57
2019-02-10T01:19:50.434Z,5.54
2019-02-10T01:24:52.538Z,5.54
2019-02-10T01:29:54.530Z,5.49
2019-02-10T01:34:56.515Z,5.39
2019-02-10T01:39:58.406Z,5.42
2019-02-10T01:45:00.445Z,5.43
2019-02-10T01:50:05.559Z,5.29
2019-02-10T01:55:10.261Z,5.23
2019-02-10T02:00:13.977Z,5.40
2019-02-10T02:05:15.971Z,5.30
2019-02-10T02:10:17.995Z,5.30
2019-02-10T02:15:19.954Z,5.40
2019-02-10T02:20:22.006Z,5.31
2019-02-10T02:25:24.199Z,4.99
2019-02-10T02:30:26.424Z,4.61
2019-02-10T02:35:28.661Z,4.59
2019-02-10T02:40:30.555Z,4.39
2019-02-10T02:45:32.675Z,4.39
2019-02-10T02:50:35.039Z,4.38
2019-02-10T02:55:36.924Z,4.25
2019-02-10T03:00:38.804Z,4.28
2019-02-10T03:05:40.953Z,4.20
2019-02-10T03:10:43.971Z,4.07
2019-02-10T03:15:47.046Z,4.06
2019-02-10T03:20:48.967Z,4.02
2019-02-10T03:25:50.994Z,3.89
2019-02-10T03:30:52.924Z,3.90
2019-02-10T03:35:54.912Z,3.87
2019-02-10T03:40:56.818Z,4.10
2019-02-10T03:45:58.723Z,4.15
2019-02-10T03:51:00.627Z,4.28
2019-02-10T03:56:02.639Z,4.35
2019-02-10T04:01:04.657Z,4.32
2019-02-10T04:06:06.683Z,4.39
2019-02-10T04:11:08.792Z,4.36
2019-02-10T04:16:12.021Z,4.43
2019-02-10T04:21:13.925Z,4.53
2019-02-10T04:26:15.833Z,4.58
2019-02-10T04:31:18.154Z,4.64
2019-02-10T04:36:20.046Z,4.63
2019-02-10T04:41:21.939Z,4.61
2019-02-10T04:46:23.965Z,4.80
2019-02-10T04:51:25.876Z,4.85
2019-02-10T04:56:27.772Z,4.89
2019-02-10T05:01:29.929Z,4.87
2019-02-10T05:06:32.887Z,4.78
2019-02-10T05:11:35.059Z,4.89
2019-02-10T05:16:37.294Z,4.84
2019-02-10T05:21:39.170Z,4.82
2019-02-10T05:26:41.250Z,4.85
2019-02-10T05:31:43.201Z,5.06
2019-02-10T05:36:45.142Z,5.18
2019-02-10T05:41:47.023Z,5.21
2019-02-10T05:46:49.374Z,5.31
2019-02-10T05:51:51.249Z,5.31
2019-02-10T05:56:53.173Z,5.33
2019-02-10T06:01:59.977Z,5.39
2019-02-10T06:07:05.237Z,5.38
2019-02-10T06:12:07.114Z,5.42
2019-02-10T06:17:09.043Z,5.38
2019-02-10T06:22:11.246Z,5.43
2019-02-10T06:27:14.432Z,5.41
2019-02-10T06:32:16.349Z,5.47
2019-02-10T06:37:18.402Z,5.56
2019-02-10T06:42:20.386Z,5.58
2019-02-10T06:47:22.284Z,5.80
2019-02-10T06:52:24.236Z,5.86
2019-02-10T06:57:26.216Z,6.04
2019-02-10T07:02:39.930Z,6.01
2019-02-10T07:07:41.819Z,5.98
2019-02-10T07:12:48.331Z,5.93
2019-02-10T07:18:34.767Z,5.87
2019-02-10T07:24:23.509Z,5.86
2019-02-10T07:30:13.583Z,5.77
2019-02-10T07:36:07.050Z,5.80
2019-02-10T07:41:46.029Z,5.83
2019-02-10T07:47:39.236Z,5.84
2019-02-10T07:53:04.635Z,5.92
2019-02-10T07:58:19.227Z,5.97
2019-02-10T08:04:11.455Z,6.19
2019-02-10T08:09:44.167Z,6.30
2019-02-10T08:15:23.582Z,6.45
2019-02-10T08:21:23.549Z,6.50
2019-02-10T08:27:06.432Z,6.49
2019-02-10T08:33:08.675Z,6.56
2019-02-10T08:38:35.976Z,6.64
2019-02-10T08:44:02.139Z,6.74
2019-02-10T08:49:28.622Z,6.81
2019-02-10T08:54:32.473Z,6.89
2019-02-10T08:59:34.383Z,6.97
2019-02-10T09:04:36.344Z,7.03
2019-02-10T09:09:38.260Z,7.05
2019-02-10T09:14:40.195Z,7.18
2019-02-10T09:19:42.112Z,7.23
2019-02-10T09:24:43.987Z,7.26
2019-02-10T09:29:45.920Z,7.36
2019-02-10T09:34:47.827Z,7.46
2019-02-10T09:39:49.938Z,7.47
2019-02-10T09:44:51.957Z,7.56
2019-02-10T09:49:53.844Z,7.52
2019-02-10T09:54:56.832Z,7.67
2019-02-10T09:59:58.763Z,7.60
2019-02-10T10:05:00.645Z,7.64
2019-02-10T10:10:03.196Z,7.64
2019-02-10T10:15:07.266Z,7.72
2019-02-10T10:20:11.070Z,7.73
2019-02-10T10:25:13.260Z,8.00
2019-02-10T10:30:15.810Z,7.84
2019-02-10T10:35:17.838Z,7.99
2019-02-10T10:40:21.021Z,8.12
2019-02-10T10:45:23.032Z,8.13
2019-02-10T10:50:25.202Z,8.16
2019-02-10T10:55:27.382Z,8.21
2019-02-10T11:00:29.281Z,8.26
2019-02-10T11:05:31.591Z,8.52
2019-02-10T11:10:33.505Z,8.67
2019-02-10T11:15:35.772Z,8.90
2019-02-10T11:20:38.256Z,8.99
2019-02-10T11:25:40.166Z,9.10
2019-02-10T11:30:42.098Z,9.19
2019-02-10T11:35:44.050Z,9.22
2019-02-10T11:40:46.079Z,9.26
2019-02-10T11:45:47.964Z,9.31
2019-02-10T11:50:50.184Z,9.44
2019-02-10T11:55:52.175Z,9.49
2019-02-10T12:00:54.134Z,9.56
2019-02-10T12:05:56.028Z,9.52
2019-02-10T12:10:58.154Z,9.38
2019-02-10T12:16:00.938Z,9.40
2019-02-10T12:21:02.991Z,9.60
2019-02-10T12:26:05.169Z,9.52
2019-02-10T12:31:08.197Z,9.55
2019-02-10T12:36:10.139Z,9.55
2019-02-10T12:41:12.709Z,9.62
2019-02-10T12:46:14.635Z,9.61
2019-02-10T12:51:16.906Z,9.61
2019-02-10T12:56:18.890Z,9.46
2019-02-10T13:01:21.095Z,9.48
2019-02-10T13:06:23.211Z,9.65
2019-02-10T13:11:25.126Z,9.57
2019-02-10T13:16:27.019Z,9.70
2019-02-10T13:21:29.190Z,9.94
2019-02-10T13:26:31.272Z,10.08
2019-02-10T13:31:33.191Z,10.29
2019-02-10T13:36:35.286Z,10.29
2019-02-10T13:41:37.043Z,10.18
2019-02-10T13:46:38.925Z,10.07
2019-02-10T13:51:40.865Z,9.94
2019-02-10T13:56:42.884Z,9.99
2019-02-10T14:01:44.767Z,10.18
2019-02-10T14:06:46.957Z,10.19
2019-02-10T14:11:50.389Z,10.16
2019-02-10T14:16:53.476Z,10.21
2019-02-10T14:21:56.189Z,10.25
2019-02-10T14:26:58.424Z,10.41
2019-02-10T14:32:02.230Z,10.43
2019-02-10T14:37:04.928Z,10.40
2019-02-10T14:42:06.925Z,10.26
2019-02-10T14:47:08.919Z,10.32
2019-02-10T14:52:13.017Z,10.38
2019-02-10T14:57:14.956Z,10.35
2019-02-10T15:02:17.850Z,10.30
2019-02-10T15:07:25.175Z,10.35
2019-02-10T15:12:23.679Z,10.38
2019-02-10T15:17:25.578Z,10.44
2019-02-10T15:22:27.515Z,10.51
2019-02-10T15:27:29.428Z,10.48
2019-02-10T15:32:44.223Z,10.37
2019-02-10T15:37:46.629Z,10.28
2019-02-10T15:42:48.607Z,10.18
2019-02-10T15:47:50.521Z,10.24
2019-02-10T15:52:52.420Z,10.03
2019-02-10T15:57:54.347Z,10.03
2019-02-10T16:02:56.335Z,10.03
2019-02-10T16:07:58.247Z,9.98
2019-02-10T16:13:00.338Z,9.87
2019-02-10T16:18:02.239Z,9.86
2019-02-10T16:23:04.234Z,9.78
2019-02-10T16:28:06.131Z,9.67
2019-02-10T16:33:08.059Z,9.60
2019-02-10T16:38:09.964Z,9.47
2019-02-10T16:43:11.845Z,9.44
2019-02-10T16:48:13.786Z,9.36
2019-02-10T16:53:15.673Z,9.42
2019-02-10T16:58:17.783Z,9.47
2019-02-10T17:03:21.009Z,9.53
2019-02-10T17:08:22.898Z,9.42
2019-02-10T17:13:25.206Z,9.39
2019-02-10T17:18:27.114Z,9.38
2019-02-10T17:23:29.099Z,9.29
2019-02-10T17:28:31.007Z,9.29
2019-02-10T17:33:32.915Z,9.25
2019-02-10T17:38:34.986Z,9.10
2019-02-10T17:43:37.279Z,9.12
2019-02-10T17:48:39.283Z,9.01
2019-02-10T17:53:41.169Z,8.93
2019-02-10T17:58:43.265Z,8.83
2019-02-10T18:03:45.164Z,8.87
2019-02-10T18:08:47.249Z,8.84
2019-02-10T18:13:49.206Z,8.80
2019-02-10T18:19:04.758Z,8.77
2019-02-10T18:24:16.953Z,8.83
2019-02-10T18:29:56.481Z,8.83
2019-02-10T18:35:20.876Z,8.77
2019-02-10T18:40:35.890Z,8.82
2019-02-10T18:45:58.268Z,8.77
2019-02-10T18:51:08.650Z,8.82
2019-02-10T18:56:22.931Z,8.81
2019-02-10T19:01:56.800Z,8.66
2019-02-10T19:07:34.440Z,8.60
2019-02-10T19:12:53.004Z,8.61
2019-02-10T19:18:15.804Z,8.70
2019-02-10T19:23:36.384Z,8.51
2019-02-10T19:28:54.327Z,8.35
2019-02-10T19:34:22.256Z,8.22
2019-02-10T19:39:37.818Z,8.36
2019-02-10T19:44:58.180Z,8.37
2019-02-10T19:50:24.515Z,8.39
2019-02-10T19:55:45.046Z,8.42
2019-02-10T20:01:08.670Z,8.32
2019-02-10T20:06:36.134Z,8.23
2019-02-10T20:12:03.734Z,8.18
2019-02-10T20:17:09.920Z,8.20
2019-02-10T20:22:29.910Z,8.19
2019-02-10T20:27:48.257Z,8.16
2019-02-10T20:32:59.906Z,8.11
2019-02-10T20:38:20.325Z,7.96
2019-02-10T20:43:48.157Z,7.64
2019-02-10T20:49:08.435Z,7.34
2019-02-10T20:54:29.586Z,7.17
2019-02-10T21:00:01.574Z,7.07
2019-02-10T21:05:24.569Z,7.06
2019-02-10T21:10:45.445Z,7.05
2019-02-10T21:16:04.653Z,6.99
2019-02-10T21:21:28.789Z,6.87
2019-02-10T21:26:49.304Z,6.71
2019-02-10T21:32:03.941Z,6.85
2019-02-10T21:37:26.756Z,6.78
2019-02-10T21:43:06.718Z,6.81
2019-02-10T21:48:17.871Z,6.76
2019-02-10T21:53:19.757Z,6.78
2019-02-10T21:58:21.683Z,6.69
2019-02-10T22:03:23.581Z,6.62
2019-02-10T22:08:25.461Z,6.56
2019-02-10T22:13:27.357Z,6.59
2019-02-10T22:18:29.322Z,6.51
2019-02-10T22:23:32.207Z,6.60
2019-02-10T22:28:35.168Z,6.59
2019-02-10T22:33:37.066Z,6.63
2019-02-10T22:38:38.999Z,6.67
2019-02-10T22:43:40.984Z,6.58
2019-02-10T22:48:42.874Z,6.60
2019-02-10T22:53:44.759Z,6.66
2019-02-10T22:58:46.723Z,6.66
2019-02-10T23:03:48.915Z,6.67
2019-02-10T23:08:50.814Z,6.69
2019-02-10T23:13:52.700Z,6.76
2019-02-10T23:18:54.647Z,6.71
2019-02-10T23:23:56.592Z,6.69
2019-02-10T23:28:58.530Z,6.66
2019-02-10T23:34:00.476Z,6.64
2019-02-10T23:39:04.331Z,6.47
2019-02-10T23:44:06.254Z,6.03
2019-02-10T23:49:08.184Z,5.52
2019-02-10T23:54:10.106Z,5.27
2019-02-10T23:59:12.958Z,5.05
